createdAt,value
2019-02-23T00:01:04.930Z,103073.59
2019-02-23T00:03:35.888Z,103067.52
2019-02-23T00:06:06.608Z,103068.33
2019-02-23T00:08:37.164Z,103071.25
2019-02-23T00:11:07.833Z,103079.11
2019-02-23T00:13:38.945Z,103083.55
2019-02-23T00:16:09.766Z,103081.02
2019-02-23T00:18:41.253Z,103086.71
2019-02-23T00:21:14.442Z,103088.42
2019-02-23T00:23:45.056Z,103090.55
2019-02-23T00:26:15.866Z,103091.75
2019-02-23T00:28:46.475Z,103095.30
2019-02-23T00:31:17.965Z,103091.01
2019-02-23T00:33:48.985Z,103087.08
2019-02-23T00:36:19.623Z,103076.27
2019-02-23T00:38:50.295Z,103067.61
2019-02-23T00:41:21.365Z,103071.91
2019-02-23T00:43:51.953Z,103076.95
2019-02-23T00:46:23.021Z,103086.43
2019-02-23T00:48:53.555Z,103080.00
2019-02-23T00:51:24.238Z,103083.84
2019-02-23T00:53:55.008Z,103085.61
2019-02-23T00:56:25.736Z,103081.33
2019-02-23T00:58:56.298Z,103081.35
2019-02-23T01:01:27.380Z,103086.53
2019-02-23T01:03:58.087Z,103082.69
2019-02-23T01:06:28.670Z,103076.36
2019-02-23T01:09:00.567Z,103078.17
2019-02-23T01:11:31.156Z,103095.53
2019-02-23T01:14:01.703Z,103098.05
2019-02-23T01:16:34.839Z,103091.68
2019-02-23T01:19:05.649Z,103088.80
2019-02-23T01:21:36.245Z,103087.09
2019-02-23T01:24:06.877Z,103082.83
2019-02-23T01:26:37.697Z,103081.95
2019-02-23T01:29:08.602Z,103092.36
2019-02-23T01:31:39.326Z,103098.80
2019-02-23T01:34:11.341Z,103093.64
2019-02-23T01:36:42.951Z,103099.47
2019-02-23T01:39:14.507Z,103095.50
2019-02-23T01:41:45.303Z,103073.20
2019-02-23T01:44:16.137Z,103061.03
2019-02-23T01:46:47.003Z,103048.83
2019-02-23T01:49:17.676Z,103046.49
2019-02-23T01:51:48.340Z,103048.16
2019-02-23T01:54:19.123Z,103075.40
2019-02-23T01:56:49.788Z,103089.95
2019-02-23T01:59:20.270Z,103094.59
2019-02-23T02:01:50.903Z,103093.99
2019-02-23T02:04:21.527Z,103079.53
2019-02-23T02:06:52.142Z,103070.73
2019-02-23T02:09:25.953Z,103062.20
2019-02-23T02:11:57.257Z,103052.22
2019-02-23T02:14:27.909Z,103035.81
2019-02-23T02:16:58.459Z,103030.97
2019-02-23T02:19:29.219Z,103042.19
2019-02-23T02:22:00.341Z,103038.27
2019-02-23T02:24:31.478Z,103030.44
2019-02-23T02:27:02.061Z,103023.44
2019-02-23T02:29:32.814Z,103021.16
2019-02-23T02:32:03.362Z,103015.18
2019-02-23T02:34:34.055Z,103007.36
2019-02-23T02:37:04.901Z,103009.30
2019-02-23T02:39:35.577Z,103002.76
2019-02-23T02:42:06.193Z,102988.83
2019-02-23T02:44:37.442Z,102990.98
2019-02-23T02:47:08.097Z,102992.53
2019-02-23T02:49:38.748Z,103000.34
2019-02-23T02:52:09.406Z,102995.45
2019-02-23T02:54:40.454Z,102998.30
2019-02-23T02:57:11.232Z,102993.13
2019-02-23T02:59:41.840Z,102987.94
2019-02-23T03:02:13.113Z,102986.94
2019-02-23T03:04:43.842Z,102983.32
2019-02-23T03:07:14.503Z,102981.11
2019-02-23T03:09:45.097Z,102985.03
2019-02-23T03:12:15.698Z,102979.81
2019-02-23T03:14:46.359Z,102979.73
2019-02-23T03:17:17.175Z,102976.23
2019-02-23T03:19:47.857Z,102970.56
2019-02-23T03:22:18.597Z,102969.66
2019-02-23T03:24:49.572Z,102971.70
2019-02-23T03:27:20.715Z,102973.69
2019-02-23T03:29:51.845Z,102966.34
2019-02-23T03:32:22.444Z,102966.34
2019-02-23T03:34:53.177Z,102964.68
2019-02-23T03:37:26.376Z,102967.53
2019-02-23T03:39:56.907Z,102962.05
2019-02-23T03:42:28.734Z,102965.15
2019-02-23T03:44:59.222Z,102972.45
2019-02-23T03:47:29.953Z,102978.03
2019-02-23T03:50:00.614Z,102964.20
2019-02-23T03:52:31.164Z,102951.69
2019-02-23T03:55:02.009Z,102948.20
2019-02-23T03:57:32.722Z,102949.95
2019-02-23T04:00:03.375Z,102946.47
2019-02-23T04:02:34.109Z,102934.34
2019-02-23T04:05:05.229Z,102930.92
2019-02-23T04:07:36.396Z,102936.02
2019-02-23T04:10:07.425Z,102932.50
2019-02-23T04:12:38.224Z,102944.86
2019-02-23T04:15:09.295Z,102936.54
2019-02-23T04:17:39.994Z,102942.25
2019-02-23T04:20:10.550Z,102953.39
2019-02-23T04:22:41.140Z,102959.92
2019-02-23T04:25:11.777Z,102956.84
2019-02-23T04:27:45.403Z,102962.52
2019-02-23T04:30:16.231Z,102960.70
2019-02-23T04:32:46.947Z,102966.99
2019-02-23T04:35:17.577Z,102965.63
2019-02-23T04:37:48.302Z,102960.94
2019-02-23T04:40:18.818Z,102953.64
2019-02-23T04:42:50.235Z,102945.80
2019-02-23T04:45:20.880Z,102942.33
2019-02-23T04:47:51.685Z,102946.61
2019-02-23T04:50:22.435Z,102947.91
2019-02-23T04:52:52.476Z,102949.20
2019-02-23T04:55:23.095Z,102950.75
2019-02-23T04:57:53.261Z,102954.30
2019-02-23T05:00:23.570Z,102958.52
2019-02-23T05:02:53.771Z,102959.45
2019-02-23T05:05:24.071Z,102960.31
2019-02-23T05:07:54.192Z,102974.03
2019-02-23T05:10:24.330Z,102966.76
2019-02-23T05:12:54.396Z,102962.19
2019-02-23T05:15:25.009Z,102953.20
2019-02-23T05:17:55.666Z,102942.27
2019-02-23T05:20:26.457Z,102944.41
2019-02-23T05:22:56.686Z,102958.18
2019-02-23T05:25:26.929Z,102946.92
2019-02-23T05:27:57.074Z,102958.98
2019-02-23T05:30:27.339Z,102957.30
2019-02-23T05:32:57.305Z,102942.70
2019-02-23T05:35:27.557Z,102944.23
2019-02-23T05:37:59.470Z,102939.01
2019-02-23T05:40:30.421Z,102951.38
2019-02-23T05:43:01.519Z,102959.99
2019-02-23T05:45:32.192Z,102960.95
2019-02-23T05:48:02.937Z,102968.71
2019-02-23T05:50:33.748Z,102983.02
2019-02-23T05:53:04.410Z,102986.52
2019-02-23T05:55:35.563Z,102987.97
2019-02-23T05:58:06.133Z,102990.97
2019-02-23T06:00:36.947Z,102988.58
2019-02-23T06:03:07.633Z,102979.14
2019-02-23T06:05:39.500Z,102978.95
2019-02-23T06:08:10.033Z,102987.19
2019-02-23T06:10:41.144Z,102992.28
2019-02-23T06:13:12.195Z,102988.53
2019-02-23T06:15:42.883Z,102992.90
2019-02-23T06:18:13.563Z,102995.48
2019-02-23T06:20:44.525Z,103001.14
2019-02-23T06:23:15.301Z,103012.97
2019-02-23T06:25:46.038Z,103018.23
2019-02-23T06:28:16.523Z,103026.14
2019-02-23T06:30:47.548Z,103030.58
2019-02-23T06:33:21.387Z,103039.13
2019-02-23T06:35:53.592Z,103044.55
2019-02-23T06:38:24.143Z,103047.58
2019-02-23T06:40:54.564Z,103043.67
2019-02-23T06:43:24.794Z,103056.08
2019-02-23T06:45:55.039Z,103056.08
2019-02-23T06:48:25.014Z,103054.61
2019-02-23T06:50:55.161Z,103052.33
2019-02-23T06:53:25.519Z,103056.88
2019-02-23T06:55:55.661Z,103062.46
2019-02-23T06:58:26.004Z,103055.94
2019-02-23T07:00:56.243Z,103044.42
2019-02-23T07:03:26.480Z,103048.31
2019-02-23T07:05:56.585Z,103070.11
2019-02-23T07:08:26.663Z,103076.28
2019-02-23T07:10:56.878Z,103081.22
2019-02-23T07:13:27.011Z,103085.24
2019-02-23T07:15:57.309Z,103085.38
2019-02-23T07:18:27.493Z,103090.77
2019-02-23T07:20:59.923Z,103083.87
2019-02-23T07:23:30.056Z,103084.05
2019-02-23T07:26:00.263Z,103073.73
2019-02-23T07:28:30.958Z,103069.51
2019-02-23T07:31:01.166Z,103074.77
2019-02-23T07:33:33.058Z,103084.79
2019-02-23T07:36:04.876Z,103088.99
2019-02-23T07:38:35.713Z,103084.44
2019-02-23T07:41:07.409Z,103084.86
2019-02-23T07:43:38.087Z,103083.71
2019-02-23T07:46:08.648Z,103074.61
2019-02-23T07:48:41.166Z,103076.38
2019-02-23T07:51:14.879Z,103079.34
2019-02-23T07:53:45.915Z,103080.66
2019-02-23T07:56:17.565Z,103094.69
2019-02-23T07:58:48.309Z,103092.77
2019-02-23T08:01:20.198Z,103084.14
2019-02-23T08:03:51.070Z,103084.94
2019-02-23T08:06:22.847Z,103085.49
2019-02-23T08:08:55.995Z,103089.75
2019-02-23T08:11:26.781Z,103096.94
2019-02-23T08:13:58.512Z,103110.12
2019-02-23T08:16:29.609Z,103116.89
2019-02-23T08:19:03.770Z,103126.22
2019-02-23T08:21:54.310Z,103120.89
2019-02-23T08:24:26.348Z,103121.10
2019-02-23T08:27:01.530Z,103132.70
2019-02-23T08:29:33.190Z,103141.41
2019-02-23T08:32:24.770Z,103133.40
2019-02-23T08:34:56.042Z,103114.33
2019-02-23T08:40:21.270Z,103094.73
2019-02-23T08:42:54.882Z,103095.13
2019-02-23T08:45:34.981Z,103104.52
2019-02-23T08:48:09.400Z,103109.58
2019-02-23T08:50:49.102Z,103095.23
2019-02-23T08:53:20.454Z,103081.02
2019-02-23T08:55:53.519Z,103073.90
2019-02-23T08:58:25.386Z,103067.78
2019-02-23T09:00:58.113Z,103057.86
2019-02-23T09:03:32.235Z,103057.05
2019-02-23T09:06:03.641Z,103054.92
2019-02-23T09:08:36.776Z,103051.56
2019-02-23T09:11:09.782Z,103047.72
2019-02-23T09:13:41.092Z,103053.70
2019-02-23T09:16:12.713Z,103057.95
2019-02-23T09:18:45.054Z,103058.11
2019-02-23T09:21:20.079Z,103051.22
2019-02-23T09:23:51.472Z,103048.95
2019-02-23T09:26:31.623Z,103039.20
2019-02-23T09:29:03.086Z,103048.83
2019-02-23T09:31:34.749Z,103047.92
2019-02-23T09:34:06.374Z,103034.37
2019-02-23T09:36:42.140Z,103031.17
